Time;durP1;ratioP1;P1;durP2;ratioP2;P2;SDS_P1;SDS_P2;PMS_P1;PMS_P2;Temp;Humidity;BMP_temperature;BMP_pressure;BME280_temperature;BME280_humidity;BME280_pressure;Samples;Min_cycle;Max_cycle;Signal;HPM_P1;HPM_P2
2021/11/08 00:00:32;;;;;;;24.20;9.80;;;5.30;99.90;;;;;;5094144;28;20047;-78
2021/11/08 00:03:01;;;;;;;28.52;13.65;;;5.30;99.90;;;;;;5088647;28;20177;-80
2021/11/08 00:05:29;;;;;;;25.25;10.40;;;5.30;99.90;;;;;;5092702;28;20051;-77
2021/11/08 00:08:02;;;;;;;29.45;10.55;;;5.30;99.90;;;;;;5089286;28;20126;-79
2021/11/08 00:10:36;;;;;;;19.52;8.95;;;5.30;99.90;;;;;;5086022;28;20109;-79
2021/11/08 00:13:05;;;;;;;28.83;13.35;;;5.20;99.90;;;;;;5090612;28;20040;-79
2021/11/08 00:20:49;;;;;;;21.33;10.75;;;5.20;99.90;;;;;;5090528;28;20105;-80
2021/11/08 00:23:16;;;;;;;23.52;9.82;;;5.20;99.90;;;;;;5079317;28;20071;-79
2021/11/08 00:25:43;;;;;;;22.40;9.93;;;5.20;99.90;;;;;;5091235;28;20066;-79
2021/11/08 00:28:12;;;;;;;24.77;10.65;;;5.10;99.90;;;;;;5083422;28;20052;-80
2021/11/08 00:30:39;;;;;;;23.45;9.55;;;5.10;99.90;;;;;;5084957;28;20048;-80
2021/11/08 00:33:08;;;;;;;22.45;9.70;;;5.00;99.90;;;;;;5086339;28;20044;-81
2021/11/08 00:35:37;;;;;;;17.88;9.30;;;5.00;99.90;;;;;;5059890;28;20500;-79
2021/11/08 00:38:04;;;;;;;27.63;9.18;;;5.00;99.90;;;;;;5088637;28;20047;-77
2021/11/08 00:40:31;;;;;;;21.58;9.10;;;5.00;99.90;;;;;;5088230;28;20121;-81
2021/11/08 00:42:58;;;;;;;19.25;8.85;;;4.90;99.90;;;;;;5085401;28;20048;-81
2021/11/08 00:45:25;;;;;;;24.15;8.85;;;4.90;99.90;;;;;;5092011;28;20471;-80
2021/11/08 00:47:55;;;;;;;21.65;9.05;;;4.90;99.90;;;;;;5068166;28;20506;-81
2021/11/08 00:50:23;;;;;;;24.13;10.07;;;4.90;99.90;;;;;;5089408;28;20052;-79
2021/11/08 00:52:50;;;;;;;28.70;8.50;;;4.90;99.90;;;;;;5084339;28;20060;-75
2021/11/08 00:55:17;;;;;;;17.50;7.50;;;5.00;99.90;;;;;;5077906;28;20159;-81
2021/11/08 00:57:46;;;;;;;25.33;10.50;;;5.00;99.90;;;;;;5083864;28;20055;-82
2021/11/08 01:00:14;;;;;;;22.63;8.20;;;5.00;99.90;;;;;;5088244;28;20118;-81
2021/11/08 01:02:42;;;;;;;20.52;7.60;;;5.00;99.90;;;;;;5062679;28;20044;-79
2021/11/08 01:05:10;;;;;;;18.23;6.65;;;5.00;99.90;;;;;;5083755;28;20451;-71
2021/11/08 01:07:37;;;;;;;21.73;7.22;;;5.10;99.90;;;;;;5090508;28;20159;-78
2021/11/08 01:10:06;;;;;;;14.63;6.80;;;5.10;99.90;;;;;;5070694;28;20051;-77
2021/11/08 01:12:33;;;;;;;21.45;9.50;;;5.10;99.90;;;;;;5089988;28;20519;-78
2021/11/08 01:15:00;;;;;;;19.27;5.72;;;5.00;99.90;;;;;;5073146;28;20052;-78
2021/11/08 01:17:27;;;;;;;14.50;6.43;;;5.00;99.90;;;;;;5081139;28;20123;-78
2021/11/08 01:20:00;;;;;;;24.23;5.88;;;5.10;99.90;;;;;;5082503;28;20048;-78
2021/11/08 01:22:27;;;;;;;23.13;7.03;;;5.10;99.90;;;;;;5096781;28;20104;-79
2021/11/08 01:24:55;;;;;;;15.85;6.47;;;5.00;99.90;;;;;;5089699;28;20063;-79
2021/11/08 01:27:38;;;;;;;16.23;6.40;;;5.00;99.90;;;;;;5089381;28;20039;-80
2021/11/08 01:30:08;;;;;;;18.35;6.10;;;5.00;99.90;;;;;;5056543;28;20483;-79
2021/11/08 01:32:35;;;;;;;20.50;6.72;;;5.00;99.90;;;;;;5085159;28;20048;-78
2021/11/08 01:35:03;;;;;;;16.95;6.07;;;5.00;99.90;;;;;;5081705;28;20059;-78
2021/11/08 01:37:30;;;;;;;19.38;7.90;;;5.00;99.90;;;;;;5092281;28;20109;-76
2021/11/08 01:39:58;;;;;;;21.60;5.68;;;5.00;99.90;;;;;;5088252;28;20051;-78
2021/11/08 01:42:25;;;;;;;15.23;5.90;;;4.90;99.90;;;;;;5089959;28;20048;-76
2021/11/08 01:44:52;;;;;;;17.13;5.97;;;4.90;99.90;;;;;;5077763;28;20044;-77
2021/11/08 01:47:19;;;;;;;15.93;5.28;;;4.90;99.90;;;;;;5090154;28;20059;-76
2021/11/08 01:49:46;;;;;;;24.05;7.07;;;4.90;99.90;;;;;;5089002;28;20043;-77
2021/11/08 01:52:14;;;;;;;21.67;5.32;;;4.90;99.90;;;;;;5088638;28;20063;-76
2021/11/08 01:54:41;;;;;;;20.30;6.75;;;4.90;99.90;;;;;;5090167;28;20040;-78
2021/11/08 01:57:08;;;;;;;15.60;4.85;;;4.90;99.90;;;;;;5088343;28;20045;-79
2021/11/08 01:59:35;;;;;;;12.80;6.18;;;4.80;99.90;;;;;;5080172;28;20132;-80
2021/11/08 02:02:02;;;;;;;17.90;5.30;;;4.80;99.90;;;;;;5086666;28;20048;-79
2021/11/08 02:04:29;;;;;;;14.68;5.13;;;4.80;99.90;;;;;;5091095;28;20048;-73
2021/11/08 02:06:56;;;;;;;15.85;6.43;;;4.80;99.90;;;;;;5085931;28;20122;-79
2021/11/08 02:09:23;;;;;;;18.70;6.88;;;4.80;99.90;;;;;;5075793;28;20447;-74
2021/11/08 02:11:50;;;;;;;17.42;6.90;;;4.80;99.90;;;;;;5088344;28;20048;-78
2021/11/08 02:14:17;;;;;;;24.23;5.20;;;4.80;99.90;;;;;;5090861;28;20062;-79
2021/11/08 02:16:44;;;;;;;13.02;6.07;;;4.80;99.90;;;;;;5088376;28;20048;-80
2021/11/08 02:19:12;;;;;;;16.67;6.82;;;4.80;99.90;;;;;;5086767;28;20083;-79
2021/11/08 02:21:39;;;;;;;19.70;6.07;;;4.80;99.90;;;;;;5097134;28;20392;-72
2021/11/08 02:24:08;;;;;;;17.10;4.65;;;4.80;99.90;;;;;;5088858;28;20081;-80
2021/11/08 02:26:35;;;;;;;14.27;5.72;;;4.80;99.90;;;;;;5085169;28;20055;-77
2021/11/08 02:29:02;;;;;;;17.00;6.55;;;4.80;99.90;;;;;;5079376;28;20052;-79
2021/11/08 02:31:30;;;;;;;19.33;5.18;;;4.80;99.90;;;;;;5079751;28;20095;-77
2021/11/08 02:33:57;;;;;;;14.48;6.28;;;4.80;99.90;;;;;;5084898;28;20051;-79
2021/11/08 02:36:24;;;;;;;18.55;5.65;;;4.80;99.90;;;;;;5088235;28;20055;-79
2021/11/08 02:38:54;;;;;;;13.77;4.88;;;4.80;99.90;;;;;;5084640;28;20404;-78
2021/11/08 02:41:21;;;;;;;;;;;4.80;99.90;;;;;;5086198;28;20059;-78
2021/11/08 02:43:48;;;;;;;17.30;6.22;;;4.80;99.90;;;;;;5089014;28;20423;-73
2021/11/08 02:46:16;;;;;;;11.93;5.05;;;4.80;99.90;;;;;;5091765;28;20447;-79
2021/11/08 02:48:49;;;;;;;15.27;5.53;;;4.70;99.90;;;;;;5077605;28;20078;-77
2021/11/08 02:53:47;;;;;;;18.08;6.30;;;4.70;99.90;;;;;;5089145;28;20506;-80
2021/11/08 02:56:15;;;;;;;17.05;6.78;;;4.70;99.90;;;;;;5083634;28;20484;-76
2021/11/08 02:58:43;;;;;;;23.48;6.60;;;4.70;99.90;;;;;;5087361;28;20044;-75
2021/11/08 03:01:17;;;;;;;18.23;5.50;;;4.60;99.90;;;;;;5085202;28;20063;-80
2021/11/08 03:03:52;;;;;;;20.13;6.60;;;4.60;99.90;;;;;;5084545;28;20048;-78
2021/11/08 03:06:29;;;;;;;14.18;6.18;;;4.60;99.90;;;;;;5075741;28;20100;-79
2021/11/08 03:08:57;;;;;;;13.43;6.05;;;4.60;99.90;;;;;;5081541;28;20073;-78
2021/11/08 03:11:24;;;;;;;17.38;8.15;;;4.50;99.90;;;;;;5088850;28;20059;-78
2021/11/08 03:14:06;;;;;;;13.55;5.80;;;4.50;99.90;;;;;;5085937;28;20052;-79
2021/11/08 03:21:43;;;;;;;15.88;6.90;;;4.50;99.90;;;;;;5086748;28;20044;-78
2021/11/08 03:24:18;;;;;;;16.80;5.93;;;4.40;99.90;;;;;;5088102;28;20040;-80
2021/11/08 03:26:51;;;;;;;24.77;6.80;;;4.40;99.90;;;;;;5071271;28;20076;-80
2021/11/08 03:29:19;;;;;;;16.75;5.85;;;4.40;99.90;;;;;;5083471;28;20051;-78
2021/11/08 03:31:49;;;;;;;20.17;5.63;;;4.30;99.90;;;;;;5082508;28;20136;-79
2021/11/08 03:34:17;;;;;;;;;;;4.30;99.90;;;;;;5077621;28;20067;-80
2021/11/08 03:36:44;;;;;;;8.75;5.80;;;4.30;99.90;;;;;;5083429;28;20035;-77
2021/11/08 03:39:13;;;;;;;17.08;5.38;;;4.30;99.90;;;;;;5082495;28;20142;-80
2021/11/08 03:41:41;;;;;;;13.70;6.78;;;4.30;99.90;;;;;;5088402;28;20091;-74
2021/11/08 03:44:08;;;;;;;14.45;5.18;;;4.30;99.90;;;;;;5083429;28;20048;-78
2021/11/08 03:46:34;;;;;;;17.38;6.40;;;4.30;99.90;;;;;;5084691;28;20102;-79
2021/11/08 03:49:01;;;;;;;15.57;6.05;;;4.20;99.90;;;;;;5076812;28;20074;-79
2021/11/08 03:51:28;;;;;;;14.80;5.38;;;4.20;99.90;;;;;;5087718;28;20047;-76
2021/11/08 03:53:55;;;;;;;23.00;6.15;;;4.20;99.90;;;;;;5084008;28;20484;-77
2021/11/08 03:56:22;;;;;;;24.60;5.97;;;4.20;99.90;;;;;;5089139;28;20052;-77
2021/11/08 03:58:50;;;;;;;12.85;5.50;;;4.20;99.90;;;;;;5085907;28;20060;-79
2021/11/08 04:01:17;;;;;;;17.17;5.80;;;4.10;99.90;;;;;;5087639;28;20080;-78
2021/11/08 04:03:44;;;;;;;16.60;7.60;;;4.10;99.90;;;;;;5084573;28;20078;-77
2021/11/08 04:06:11;;;;;;;16.92;6.25;;;4.10;99.90;;;;;;5088097;28;20044;-76
2021/11/08 04:08:38;;;;;;;18.10;6.70;;;4.20;99.90;;;;;;5082015;28;20549;-77
2021/11/08 04:11:05;;;;;;;20.83;9.40;;;4.10;99.90;;;;;;5084563;28;20142;-77
2021/11/08 04:13:36;;;;;;;18.42;7.38;;;4.10;99.90;;;;;;5086665;28;20096;-77
2021/11/08 04:16:06;;;;;;;15.23;5.75;;;4.10;99.90;;;;;;5085638;28;20052;-78
2021/11/08 04:18:33;;;;;;;14.02;5.70;;;4.10;99.90;;;;;;5088514;28;20088;-77
2021/11/08 04:21:01;;;;;;;15.48;6.15;;;4.10;99.90;;;;;;5087078;28;20097;-71
2021/11/08 04:23:28;;;;;;;15.13;5.30;;;4.10;99.90;;;;;;5085151;28;20480;-79
2021/11/08 04:26:01;;;;;;;13.43;5.40;;;4.10;99.90;;;;;;5084235;28;20194;-71
2021/11/08 04:28:28;;;;;;;10.68;5.40;;;4.00;99.90;;;;;;5070473;28;20055;-78
2021/11/08 04:30:55;;;;;;;15.63;5.80;;;4.00;99.90;;;;;;5100305;28;20059;-79
2021/11/08 04:33:42;;;;;;;19.70;6.50;;;4.00;99.90;;;;;;5093319;28;20480;-78
2021/11/08 04:50:01;;;;;;;15.27;5.97;;;3.90;99.90;;;;;;5083786;28;20455;-79
2021/11/08 04:52:58;;;;;;;17.35;5.43;;;3.90;99.90;;;;;;5087920;28;20063;-77
2021/11/08 04:55:45;;;;;;;13.30;4.45;;;3.90;99.90;;;;;;5086404;28;20045;-78
2021/11/08 05:20:52;;;;;;;16.17;5.68;;;3.90;99.90;;;;;;5084250;28;20046;-77
2021/11/08 05:31:49;;;;;;;19.25;5.05;;;4.00;99.90;;;;;;5091289;28;20516;-78
2021/11/08 05:34:17;;;;;;;20.67;5.90;;;3.90;99.90;;;;;;5087499;28;20059;-77
2021/11/08 05:36:44;;;;;;;15.70;5.72;;;4.00;99.90;;;;;;5091328;28;20075;-77
2021/11/08 05:39:11;;;;;;;16.55;5.25;;;4.00;99.90;;;;;;5087486;28;21549;-78
2021/11/08 05:41:40;;;;;;;16.60;5.55;;;4.00;99.90;;;;;;5089750;28;20481;-79
2021/11/08 05:44:07;;;;;;;17.05;5.57;;;3.90;99.90;;;;;;5085866;28;20101;-77
2021/11/08 05:46:35;;;;;;;13.85;4.57;;;3.90;99.90;;;;;;5075319;28;20479;-79
2021/11/08 05:49:02;;;;;;;17.20;5.82;;;3.90;99.90;;;;;;5087688;28;20050;-79
2021/11/08 05:51:29;;;;;;;15.07;7.43;;;3.90;99.90;;;;;;5073148;28;20521;-77
2021/11/08 05:53:56;;;;;;;14.45;5.38;;;3.90;99.90;;;;;;5068404;28;20185;-79
2021/11/08 05:56:37;;;;;;;21.38;6.07;;;3.90;99.90;;;;;;5081268;28;20060;-78
2021/11/08 05:59:39;;;;;;;16.73;5.97;;;3.90;99.90;;;;;;5081005;28;20055;-78
2021/11/08 06:51:50;;;;;;;21.20;11.48;;;3.90;99.90;;;;;;5072996;28;20096;-76
2021/11/08 06:54:18;;;;;;;29.05;8.57;;;3.80;99.90;;;;;;5080053;28;20053;-73
2021/11/08 06:56:59;;;;;;;16.95;7.68;;;3.90;99.90;;;;;;5082669;28;20044;-70
2021/11/08 06:59:27;;;;;;;17.10;7.30;;;3.90;99.90;;;;;;5083918;28;20040;-77
2021/11/08 07:01:54;;;;;;;15.52;6.22;;;3.90;99.90;;;;;;5090755;28;20043;-70
2021/11/08 07:04:21;;;;;;;16.67;6.50;;;3.90;99.90;;;;;;5088713;28;20058;-72
2021/11/08 07:06:48;;;;;;;10.70;6.38;;;3.80;99.90;;;;;;5088122;28;20506;-72
2021/11/08 07:09:15;;;;;;;21.13;7.35;;;3.90;99.90;;;;;;5075911;28;20755;-72
2021/11/08 07:11:42;;;;;;;28.30;19.77;;;3.90;99.90;;;;;;5073978;28;20055;-73
2021/11/08 07:14:10;;;;;;;645.67;434.65;;;3.90;99.90;;;;;;5086720;28;20058;-71
2021/11/08 07:16:38;;;;;;;76.72;46.92;;;3.90;99.90;;;;;;5084589;28;20045;-73
2021/11/08 07:19:07;;;;;;;29.67;15.10;;;3.90;99.90;;;;;;5071560;28;20044;-74
2021/11/08 07:21:34;;;;;;;22.38;11.27;;;3.90;99.90;;;;;;5071593;28;20044;-77
2021/11/08 07:24:01;;;;;;;17.13;9.13;;;3.90;99.90;;;;;;5069200;28;20054;-74
2021/11/08 07:26:28;;;;;;;17.63;8.25;;;3.90;99.90;;;;;;5070985;28;20045;-74
2021/11/08 07:28:56;;;;;;;16.83;9.18;;;3.90;99.90;;;;;;5089081;28;20381;-73
2021/11/08 07:31:23;;;;;;;18.55;7.22;;;3.90;99.90;;;;;;5086838;28;20059;-74
2021/11/08 07:33:49;;;;;;;17.13;7.45;;;4.00;99.90;;;;;;5069781;28;20051;-74
2021/11/08 07:36:16;;;;;;;13.93;7.10;;;4.00;99.90;;;;;;5086860;28;20131;-74
2021/11/08 07:38:43;;;;;;;19.23;7.43;;;4.00;99.90;;;;;;5086728;28;20367;-75
2021/11/08 07:41:11;;;;;;;18.73;7.28;;;4.00;99.90;;;;;;5085404;28;20159;-73
2021/11/08 07:43:38;;;;;;;27.10;8.02;;;4.00;99.90;;;;;;5087342;28;20048;-75
2021/11/08 07:46:06;;;;;;;29.23;7.57;;;4.00;99.90;;;;;;5088236;28;20060;-74
2021/11/08 07:48:39;;;;;;;17.25;5.80;;;4.10;99.90;;;;;;5083645;28;20070;-73
2021/11/08 07:51:07;;;;;;;16.05;6.57;;;4.10;99.90;;;;;;5086753;28;20138;-74
2021/11/08 07:53:34;;;;;;;15.85;6.53;;;4.10;99.90;;;;;;5084796;28;20044;-75
2021/11/08 07:56:01;;;;;;;26.45;9.68;;;4.10;99.90;;;;;;5067125;28;20392;-74
2021/11/08 07:58:29;;;;;;;16.45;5.88;;;4.20;99.90;;;;;;5052785;28;20408;-78
2021/11/08 08:00:56;;;;;;;14.70;6.03;;;4.20;99.90;;;;;;5086286;28;20666;-78
2021/11/08 08:03:25;;;;;;;24.42;10.70;;;4.20;99.90;;;;;;5087360;28;20082;-80
2021/11/08 08:05:53;;;;;;;328.92;247.93;;;4.30;99.90;;;;;;5068320;28;20051;-75
2021/11/08 08:08:20;;;;;;;54.80;31.77;;;4.40;99.90;;;;;;5085720;28;20112;-75
2021/11/08 08:10:50;;;;;;;27.00;13.40;;;4.50;99.90;;;;;;5086972;28;20093;-75
2021/11/08 08:13:20;;;;;;;29.55;12.18;;;4.60;99.90;;;;;;5086361;28;20579;-76
2021/11/08 08:15:47;;;;;;;14.57;6.47;;;4.80;99.90;;;;;;5086653;28;20052;-75
2021/11/08 08:18:14;;;;;;;26.73;8.50;;;4.90;99.90;;;;;;5085692;28;20055;-75
2021/11/08 08:20:41;;;;;;;16.13;6.07;;;5.10;99.90;;;;;;5067926;28;20048;-74
2021/11/08 08:23:08;;;;;;;18.90;5.65;;;5.20;99.90;;;;;;5086040;28;20617;-74
2021/11/08 08:25:35;;;;;;;21.75;6.18;;;5.30;99.90;;;;;;5087591;28;20488;-77
2021/11/08 08:28:02;;;;;;;15.07;6.47;;;5.40;99.90;;;;;;5086624;28;20044;-75
2021/11/08 08:30:29;;;;;;;20.05;6.88;;;5.50;99.90;;;;;;5086207;28;20044;-74
2021/11/08 08:32:57;;;;;;;17.40;6.55;;;5.50;99.90;;;;;;5083872;28;20053;-72
2021/11/08 08:35:23;;;;;;;19.70;6.22;;;5.60;99.90;;;;;;5091254;28;20445;-75
2021/11/08 08:37:50;;;;;;;20.73;8.15;;;5.60;99.90;;;;;;5090878;28;20055;-74
2021/11/08 08:40:17;;;;;;;72.22;37.70;;;5.60;99.90;;;;;;5090783;28;20388;-75
2021/11/08 08:42:44;;;;;;;22.52;10.10;;;5.60;99.90;;;;;;5091039;28;20135;-75
2021/11/08 08:45:11;;;;;;;21.52;8.13;;;5.60;99.90;;;;;;5088838;28;20044;-79
2021/11/08 08:47:42;;;;;;;36.58;22.25;;;5.60;99.90;;;;;;5068882;28;20067;-72
2021/11/08 08:50:09;;;;;;;67.43;40.13;;;5.70;99.90;;;;;;5071069;28;20051;-72
2021/11/08 08:52:37;;;;;;;65.30;29.20;;;5.70;99.90;;;;;;5079035;28;20444;-75
2021/11/08 08:55:05;;;;;;;41.83;23.13;;;5.80;99.90;;;;;;5090594;28;20552;-75
2021/11/08 08:57:32;;;;;;;22.08;12.38;;;5.90;99.90;;;;;;5089112;28;20055;-72
2021/11/08 09:00:00;;;;;;;22.20;9.43;;;6.00;99.90;;;;;;5090612;28;20051;-70
2021/11/08 09:02:48;;;;;;;15.68;7.80;;;6.10;99.90;;;;;;5086375;28;20501;-75
2021/11/08 09:05:15;;;;;;;;;;;6.20;99.90;;;;;;5092051;28;20059;-82
2021/11/08 09:07:48;;;;;;;15.38;7.10;;;6.40;99.90;;;;;;5093094;28;19969;-81
2021/11/08 09:10:15;;;;;;;20.50;6.78;;;6.50;99.90;;;;;;5093351;28;20131;-80
2021/11/08 09:12:42;;;;;;;17.05;7.15;;;6.70;99.90;;;;;;5107688;28;20048;-79
2021/11/08 09:15:09;;;;;;;22.02;6.97;;;6.80;99.90;;;;;;5096315;28;20044;-80
2021/11/08 09:17:36;;;;;;;20.63;6.80;;;7.00;99.90;;;;;;5091753;28;20051;-80
2021/11/08 09:20:07;;;;;;;20.17;6.63;;;7.10;99.90;;;;;;5091160;28;20452;-80
2021/11/08 09:22:34;;;;;;;19.23;6.85;;;7.20;99.90;;;;;;5091238;28;20048;-80
2021/11/08 09:25:02;;;;;;;23.75;6.97;;;7.30;99.90;;;;;;5092619;28;20127;-79
2021/11/08 09:27:29;;;;;;;21.10;6.90;;;7.40;99.90;;;;;;5091806;28;20048;-80
2021/11/08 09:30:03;;;;;;;18.95;7.10;;;7.50;99.90;;;;;;5092510;28;20549;-80
2021/11/08 09:32:30;;;;;;;14.50;5.77;;;7.60;99.90;;;;;;5097511;28;20483;-79
2021/11/08 09:34:57;;;;;;;19.92;6.65;;;7.70;99.90;;;;;;5112442;28;20057;-75
2021/11/08 09:37:25;;;;;;;15.20;6.40;;;7.70;99.90;;;;;;5111206;28;20048;-81
2021/11/08 09:39:53;;;;;;;19.55;5.72;;;7.80;99.90;;;;;;5112789;28;20055;-80
2021/11/08 09:42:20;;;;;;;16.63;6.32;;;7.90;99.90;;;;;;5099672;28;20101;-80
2021/11/08 09:44:47;;;;;;;17.38;6.43;;;7.90;99.90;;;;;;5074688;28;20055;-80
2021/11/08 09:47:14;;;;;;;17.67;6.18;;;8.00;99.90;;;;;;5091074;28;20135;-80
2021/11/08 09:49:46;;;;;;;16.35;6.22;;;8.10;99.90;;;;;;5090823;28;20055;-79
2021/11/08 09:52:13;;;;;;;14.15;6.35;;;8.10;99.90;;;;;;5090879;28;20056;-81
2021/11/08 09:54:57;;;;;;;20.38;6.40;;;8.20;99.90;;;;;;5091151;28;20163;-79
2021/11/08 09:57:25;;;;;;;19.60;6.85;;;8.20;99.90;;;;;;5090738;28;20048;-79
2021/11/08 09:59:52;;;;;;;16.30;6.10;;;8.30;99.90;;;;;;5074435;28;20048;-79
2021/11/08 10:02:30;;;;;;;18.67;6.47;;;8.40;99.90;;;;;;5091266;28;20105;-81
2021/11/08 10:04:57;;;;;;;17.20;6.18;;;8.50;99.90;;;;;;5090412;28;20056;-80
2021/11/08 10:07:28;;;;;;;14.98;6.28;;;8.50;99.90;;;;;;5092378;28;20149;-81
2021/11/08 10:09:55;;;;;;;20.83;6.40;;;8.60;99.90;;;;;;5092044;28;20130;-81
2021/11/08 10:12:22;;;;;;;18.55;5.63;;;8.70;99.90;;;;;;5074275;28;20510;-82
2021/11/08 10:14:48;;;;;;;14.13;5.97;;;8.70;99.90;;;;;;5092287;28;20051;-83
2021/11/08 10:17:15;;;;;;;19.23;6.45;;;8.70;99.90;;;;;;5091790;28;20048;-82
2021/11/08 10:19:42;;;;;;;20.17;6.72;;;8.80;99.90;;;;;;5090211;28;20048;-81
2021/11/08 10:22:12;;;;;;;16.38;5.57;;;8.90;99.90;;;;;;5090004;28;20408;-81
2021/11/08 10:24:39;;;;;;;17.33;5.60;;;9.00;99.90;;;;;;5090717;28;20055;-80
2021/11/08 10:27:11;;;;;;;14.07;5.70;;;9.10;99.90;;;;;;5090336;28;20484;-80
2021/11/08 10:29:43;;;;;;;14.15;5.78;;;9.20;99.90;;;;;;5106223;28;20126;-80
2021/11/08 10:32:12;;;;;;;18.75;5.97;;;9.20;99.90;;;;;;5090068;28;20051;-81
2021/11/08 10:34:55;;;;;;;14.88;5.20;;;9.20;99.90;;;;;;5090800;28;20463;-80
2021/11/08 10:37:24;;;;;;;21.83;6.53;;;9.30;99.90;;;;;;5090754;28;20044;-83
2021/11/08 10:39:52;;;;;;;16.08;5.95;;;9.40;99.90;;;;;;5090938;28;20056;-76
2021/11/08 10:42:27;;;;;;;51.47;30.98;;;9.40;99.40;;;;;;5088291;28;20127;-76
2021/11/08 10:44:55;;;;;;;21.15;7.63;;;9.50;99.90;;;;;;5090584;28;20044;-77
2021/11/08 10:47:23;;;;;;;20.25;5.53;;;9.60;99.90;;;;;;5089638;28;20039;-78
2021/11/08 10:49:55;;;;;;;15.30;5.47;;;9.60;99.50;;;;;;5069343;28;20055;-73
2021/11/08 10:52:29;;;;;;;14.45;4.88;;;9.70;99.20;;;;;;5081699;28;20056;-77
2021/11/08 10:54:57;;;;;;;16.63;5.63;;;9.70;99.40;;;;;;5072159;28;20067;-67
2021/11/08 10:57:25;;;;;;;18.83;5.07;;;9.80;98.30;;;;;;5090587;28;20486;-74
2021/11/08 10:59:54;;;;;;;18.77;5.57;;;9.90;98.30;;;;;;5089296;28;20049;-75
2021/11/08 11:02:23;;;;;;;13.70;5.43;;;10.00;98.90;;;;;;5088978;28;20048;-71
2021/11/08 11:04:58;;;;;;;17.50;5.20;;;10.10;98.20;;;;;;5089130;28;20495;-71
2021/11/08 11:07:29;;;;;;;14.25;5.38;;;10.20;96.80;;;;;;5095410;28;20499;-70
2021/11/08 11:10:08;;;;;;;16.30;4.82;;;10.20;97.50;;;;;;5091751;28;20048;-68
2021/11/08 11:12:35;;;;;;;17.48;5.38;;;10.10;96.60;;;;;;5098352;28;20084;-71
2021/11/08 11:15:10;;;;;;;16.77;6.10;;;10.10;96.60;;;;;;5101179;28;20075;-71
2021/11/08 11:17:41;;;;;;;16.85;5.05;;;10.10;96.40;;;;;;5088966;28;20097;-71
2021/11/08 11:20:17;;;;;;;16.10;8.30;;;10.10;96.90;;;;;;5071155;28;20067;-70
2021/11/08 11:23:05;;;;;;;20.08;6.63;;;10.10;97.00;;;;;;5090000;28;20097;-69
2021/11/08 11:25:36;;;;;;;20.23;11.85;;;10.10;96.30;;;;;;5088024;28;20106;-73
2021/11/08 11:28:05;;;;;;;48.55;30.92;;;10.10;96.30;;;;;;5089274;28;20052;-74
2021/11/08 11:30:40;;;;;;;28.73;15.55;;;10.10;96.70;;;;;;5072752;28;20063;-72
2021/11/08 11:33:19;;;;;;;17.45;6.20;;;10.20;96.10;;;;;;5088945;28;20570;-72
2021/11/08 11:35:49;;;;;;;17.02;5.32;;;10.20;96.60;;;;;;5067987;28;20075;-75
2021/11/08 11:38:21;;;;;;;17.15;5.15;;;10.20;96.90;;;;;;5068670;28;20102;-71
2021/11/08 11:41:09;;;;;;;19.85;6.22;;;10.20;96.90;;;;;;5072265;28;20044;-73
2021/11/08 11:43:39;;;;;;;12.43;4.20;;;10.30;96.30;;;;;;5072078;28;20097;-73
2021/11/08 11:46:07;;;;;;;13.18;4.72;;;10.40;96.30;;;;;;5089201;28;20458;-69
2021/11/08 11:48:35;;;;;;;13.50;4.32;;;10.40;96.40;;;;;;5088169;28;20052;-74
2021/11/08 11:51:17;;;;;;;14.88;4.40;;;10.50;95.90;;;;;;5068943;28;20064;-76
2021/11/08 11:53:45;;;;;;;15.55;4.47;;;10.60;94.70;;;;;;5077791;28;20062;-71
2021/11/08 11:56:13;;;;;;;17.13;4.10;;;10.60;95.90;;;;;;5090699;28;20047;-74
2021/11/08 11:58:41;;;;;;;14.05;4.60;;;10.60;95.60;;;;;;5090263;28;20075;-75
2021/11/08 12:01:09;;;;;;;16.52;4.30;;;10.70;94.60;;;;;;5071645;28;20051;-74
2021/11/08 12:03:39;;;;;;;12.75;4.05;;;10.80;94.80;;;;;;5052084;28;20140;-73
2021/11/08 12:06:09;;;;;;;12.43;3.53;;;10.80;93.60;;;;;;5060337;28;20102;-72
2021/11/08 12:08:40;;;;;;;21.52;4.85;;;10.80;93.40;;;;;;5056009;28;20056;-73
2021/11/08 12:11:10;;;;;;;12.45;4.10;;;10.90;92.40;;;;;;5060183;28;20060;-73
2021/11/08 12:13:52;;;;;;;15.45;4.35;;;10.90;93.10;;;;;;5092278;28;20075;-71
2021/11/08 12:16:26;;;;;;;16.50;3.75;;;11.00;92.90;;;;;;5075541;28;20056;-72
2021/11/08 12:18:53;;;;;;;9.45;3.53;;;11.00;92.20;;;;;;5092523;28;20046;-71
2021/11/08 12:21:41;;;;;;;9.18;3.80;;;11.10;91.30;;;;;;5091525;28;20123;-76
2021/11/08 12:24:19;;;;;;;15.25;4.43;;;11.10;92.00;;;;;;5087034;28;20453;-75
2021/11/08 12:26:47;;;;;;;12.98;3.13;;;11.20;93.00;;;;;;5093459;28;20052;-77
2021/11/08 12:29:18;;;;;;;11.88;4.53;;;11.30;91.30;;;;;;5075978;28;20444;-78
2021/11/08 12:31:47;;;;;;;8.07;2.85;;;11.30;91.30;;;;;;5088881;28;20487;-78
2021/11/08 12:34:16;;;;;;;10.65;4.45;;;11.40;91.00;;;;;;5093660;28;20458;-79
2021/11/08 12:36:57;;;;;;;11.63;3.45;;;11.50;91.30;;;;;;5090585;28;20047;-78
2021/11/08 12:39:24;;;;;;;15.45;3.92;;;11.50;91.70;;;;;;5072514;28;20045;-78
2021/11/08 12:41:52;;;;;;;14.00;3.72;;;11.60;91.20;;;;;;5081329;28;20048;-79
2021/11/08 12:44:21;;;;;;;14.65;4.60;;;11.60;91.00;;;;;;5092136;28;20044;-77
2021/11/08 12:46:57;;;;;;;11.77;3.92;;;11.50;90.00;;;;;;5092347;28;20052;-78
2021/11/08 12:49:41;;;;;;;18.63;9.10;;;11.60;90.20;;;;;;5101008;28;20055;-77
2021/11/08 12:52:12;;;;;;;18.38;9.70;;;11.60;90.20;;;;;;5076312;28;20061;-78
2021/11/08 12:54:46;;;;;;;45.40;33.20;;;11.60;91.00;;;;;;5099690;28;20044;-79
2021/11/08 12:57:14;;;;;;;12.95;6.25;;;11.60;90.10;;;;;;5114230;28;20044;-78
2021/11/08 12:59:50;;;;;;;14.05;4.05;;;11.70;91.30;;;;;;5113368;28;20040;-76
2021/11/08 13:02:23;;;;;;;12.45;4.18;;;11.80;91.20;;;;;;5108803;28;20052;-75
2021/11/08 13:04:51;;;;;;;13.80;4.38;;;11.90;90.10;;;;;;5092947;28;20488;-75
2021/11/08 13:07:18;;;;;;;12.10;4.28;;;12.00;90.80;;;;;;5091540;28;20050;-75
2021/11/08 13:09:49;;;;;;;12.00;3.65;;;12.00;90.10;;;;;;5090886;28;20440;-75
2021/11/08 13:12:22;;;;;;;14.50;3.70;;;12.10;86.50;;;;;;5091505;28;20452;-75
2021/11/08 13:15:09;;;;;;;8.88;3.20;;;12.10;89.30;;;;;;5075111;28;20044;-75
2021/11/08 13:17:53;;;;;;;14.70;3.92;;;12.20;90.20;;;;;;5071159;28;20052;-74
2021/11/08 13:20:23;;;;;;;13.00;4.63;;;12.20;89.80;;;;;;5077845;28;20084;-75
2021/11/08 13:22:53;;;;;;;15.25;4.70;;;12.20;88.90;;;;;;5091135;28;20048;-74
2021/11/08 13:25:21;;;;;;;12.95;3.55;;;12.30;89.60;;;;;;5074707;28;20478;-75
2021/11/08 13:28:05;;;;;;;12.38;4.88;;;12.30;89.10;;;;;;5091696;28;20116;-76
2021/11/08 13:30:39;;;;;;;12.05;4.45;;;12.30;87.60;;;;;;5071645;28;20405;-76
2021/11/08 13:33:14;;;;;;;14.15;4.20;;;12.40;87.30;;;;;;5082392;28;20530;-75
2021/11/08 13:35:42;;;;;;;19.17;4.00;;;12.40;83.90;;;;;;5054720;28;20049;-75
2021/11/08 13:38:27;;;;;;;14.50;4.67;;;12.40;86.20;;;;;;5056932;28;20059;-74
2021/11/08 13:41:05;;;;;;;57.63;38.50;;;12.40;86.30;;;;;;5093926;28;20488;-75
2021/11/08 13:43:44;;;;;;;18.60;6.97;;;12.50;86.60;;;;;;5091626;28;20040;-74
2021/11/08 13:46:34;;;;;;;11.63;4.55;;;12.50;85.80;;;;;;5098154;28;20043;-74
2021/11/08 13:49:06;;;;;;;10.75;4.18;;;12.60;88.40;;;;;;5110960;27;20054;-74
2021/11/08 13:51:37;;;;;;;15.25;5.07;;;12.60;89.10;;;;;;5098138;27;20109;-75
2021/11/08 13:54:05;;;;;;;15.77;4.85;;;12.60;89.00;;;;;;5072344;28;20062;-75
2021/11/08 13:56:46;;;;;;;12.02;4.80;;;12.50;87.10;;;;;;5072086;28;20052;-74
2021/11/08 13:59:15;;;;;;;15.88;4.82;;;12.50;88.70;;;;;;5054054;28;20044;-74
2021/11/08 14:01:44;;;;;;;11.40;3.85;;;12.60;87.90;;;;;;5071817;28;20048;-74
2021/11/08 14:04:12;;;;;;;12.68;4.38;;;12.60;88.30;;;;;;5093441;28;20044;-74
2021/11/08 14:06:41;;;;;;;17.85;5.10;;;12.60;89.00;;;;;;5095450;28;20495;-74
2021/11/08 14:09:12;;;;;;;9.80;4.05;;;12.70;89.50;;;;;;5108336;28;20059;-74
2021/11/08 14:11:40;;;;;;;17.92;4.22;;;12.70;87.40;;;;;;5090225;28;20098;-76
2021/11/08 14:14:11;;;;;;;10.68;3.80;;;12.70;86.90;;;;;;5090907;28;20127;-75
2021/11/08 14:16:40;;;;;;;13.60;4.72;;;12.70;85.30;;;;;;5091648;28;20044;-75
2021/11/08 14:19:08;;;;;;;14.85;4.13;;;12.70;85.40;;;;;;5090205;28;20138;-75
2021/11/08 14:21:36;;;;;;;11.02;3.60;;;12.70;83.70;;;;;;5089904;28;20044;-73
2021/11/08 14:24:05;;;;;;;11.13;4.13;;;12.70;84.10;;;;;;5086616;28;20054;-73
2021/11/08 14:26:32;;;;;;;10.48;3.88;;;12.80;85.20;;;;;;5099848;28;20050;-74
2021/11/08 14:28:59;;;;;;;14.18;4.57;;;12.80;85.20;;;;;;5102373;28;20044;-74
2021/11/08 14:31:26;;;;;;;16.30;4.63;;;12.70;86.00;;;;;;5091649;28;20081;-74
2021/11/08 14:33:56;;;;;;;11.88;4.18;;;12.70;85.40;;;;;;5092006;28;20052;-74
2021/11/08 14:36:25;;;;;;;12.38;3.95;;;12.70;87.00;;;;;;5091869;28;20415;-74
2021/11/08 14:39:00;;;;;;;11.07;4.32;;;12.60;86.70;;;;;;5090972;28;20067;-74
2021/11/08 14:41:32;;;;;;;10.95;3.95;;;12.60;87.70;;;;;;5091424;28;20539;-74
2021/11/08 14:44:02;;;;;;;16.75;5.15;;;12.60;86.60;;;;;;5091570;28;20079;-74